Time;durP1;ratioP1;P1;durP2;ratioP2;P2;SDS_P1;SDS_P2;PMS_P1;PMS_P2;Temp;Humidity;BMP_temperature;BMP_pressure;BME280_temperature;BME280_humidity;BME280_pressure;Samples;Min_cycle;Max_cycle;Signal;HPM_P1;HPM_P2
2024/04/11 00:02:18;;;;;;;4.45;2.72;;;;;;;;;;10957752;26;20037;-73
2024/04/11 00:07:23;;;;;;;6.72;2.38;;;;;;;;;;10951097;26;20588;-74
2024/04/11 00:12:31;;;;;;;7.80;3.40;;;;;;;;;;10956315;26;20457;-74
2024/04/11 00:17:35;;;;;;;10.43;3.10;;;;;;;;;;10951337;26;20017;-75
2024/04/11 00:22:40;;;;;;;6.85;3.05;;;;;;;;;;10953864;26;20117;-75
2024/04/11 00:27:48;;;;;;;5.22;2.40;;;;;;;;;;10947998;26;20010;-75
2024/04/11 00:32:53;;;;;;;7.72;2.97;;;;;;;;;;10949717;26;20014;-75
2024/04/11 00:37:59;;;;;;;10.35;3.10;;;;;;;;;;10945963;27;20005;-74
2024/04/11 00:43:09;;;;;;;4.57;2.80;;;;;;;;;;10944096;27;20006;-74
2024/04/11 00:48:14;;;;;;;8.73;3.33;;;;;;;;;;10946714;27;20137;-74
2024/04/11 00:53:19;;;;;;;6.50;3.00;;;;;;;;;;10950855;27;20080;-76
2024/04/11 00:58:28;;;;;;;6.35;3.17;;;;;;;;;;10952184;27;20138;-76
2024/04/11 01:03:35;;;;;;;6.63;3.35;;;;;;;;;;10952288;26;20025;-74
2024/04/11 01:08:41;;;;;;;7.10;3.00;;;;;;;;;;10954306;26;20010;-73
2024/04/11 01:13:48;;;;;;;8.35;3.63;;;;;;;;;;10958182;26;20048;-73
2024/04/11 01:18:55;;;;;;;8.68;3.55;;;;;;;;;;10949500;26;20034;-73
2024/04/11 01:24:04;;;;;;;8.35;4.65;;;;;;;;;;10949896;27;20042;-74
2024/04/11 01:29:08;;;;;;;10.63;4.80;;;;;;;;;;10957731;26;20005;-73
2024/04/11 01:34:13;;;;;;;9.15;4.55;;;;;;;;;;10953209;26;19998;-74
2024/04/11 01:39:21;;;;;;;8.57;4.60;;;;;;;;;;10949197;27;20020;-74
2024/04/11 01:44:27;;;;;;;15.30;5.03;;;;;;;;;;10948874;26;20061;-73
2024/04/11 01:49:33;;;;;;;11.23;4.10;;;;;;;;;;10942942;26;20094;-73
2024/04/11 01:54:40;;;;;;;10.75;5.13;;;;;;;;;;10954388;26;20014;-74
2024/04/11 01:59:46;;;;;;;15.07;5.57;;;;;;;;;;10959302;27;20009;-75
2024/04/11 02:04:51;;;;;;;11.23;4.40;;;;;;;;;;10950285;26;20308;-73
2024/04/11 02:09:59;;;;;;;9.75;4.47;;;;;;;;;;10954570;26;20412;-73
2024/04/11 02:15:06;;;;;;;10.52;4.95;;;;;;;;;;10951611;26;20431;-73
2024/04/11 02:20:13;;;;;;;9.02;4.40;;;;;;;;;;10951565;27;20009;-74
2024/04/11 02:25:20;;;;;;;10.95;4.80;;;;;;;;;;10950528;27;20447;-75
2024/04/11 02:30:26;;;;;;;9.43;4.38;;;;;;;;;;10947172;26;20017;-74
2024/04/11 02:35:30;;;;;;;8.32;3.50;;;;;;;;;;10943985;26;20409;-74
2024/04/11 02:40:38;;;;;;;9.75;4.40;;;;;;;;;;10929856;27;20002;-74
2024/04/11 02:45:43;;;;;;;8.68;4.03;;;;;;;;;;10948301;27;20025;-74
2024/04/11 02:50:49;;;;;;;10.43;4.30;;;;;;;;;;10949342;26;20017;-74
2024/04/11 02:55:59;;;;;;;15.45;5.03;;;;;;;;;;10953080;27;20005;-75
2024/04/11 03:01:04;;;;;;;8.63;4.13;;;;;;;;;;10945288;27;20021;-75
2024/04/11 03:06:10;;;;;;;7.72;3.22;;;;;;;;;;10955240;26;20088;-75
2024/04/11 03:11:17;;;;;;;7.57;3.42;;;;;;;;;;10945575;26;20569;-76
2024/04/11 03:16:21;;;;;;;6.82;3.13;;;;;;;;;;10928951;27;20006;-75
2024/04/11 03:21:26;;;;;;;8.88;3.70;;;;;;;;;;10947963;26;20025;-75
2024/04/11 03:26:33;;;;;;;3.00;1.85;;;;;;;;;;10945762;27;20559;-75
2024/04/11 03:31:38;;;;;;;7.43;2.95;;;;;;;;;;10943299;26;22479;-75
2024/04/11 03:36:45;;;;;;;6.40;3.25;;;;;;;;;;10946622;27;20020;-74
2024/04/11 03:41:52;;;;;;;8.60;3.97;;;;;;;;;;10948770;26;20472;-75
2024/04/11 03:46:58;;;;;;;11.13;3.90;;;;;;;;;;10951787;26;20017;-75
2024/04/11 03:52:05;;;;;;;7.13;3.40;;;;;;;;;;10947981;27;20079;-74
2024/04/11 03:57:13;;;;;;;10.00;3.38;;;;;;;;;;10952480;26;22425;-74
2024/04/11 04:02:18;;;;;;;8.77;3.58;;;;;;;;;;10940433;26;20090;-74
2024/04/11 04:07:22;;;;;;;9.00;3.20;;;;;;;;;;10945554;26;20021;-74
2024/04/11 04:12:29;;;;;;;12.68;3.45;;;;;;;;;;10945762;26;20005;-74
2024/04/11 04:17:33;;;;;;;6.60;3.70;;;;;;;;;;10949516;26;20010;-73
2024/04/11 04:22:38;;;;;;;6.70;3.28;;;;;;;;;;10922989;26;20037;-75
2024/04/11 04:27:46;;;;;;;10.40;3.92;;;;;;;;;;10942190;26;20002;-73
2024/04/11 04:32:51;;;;;;;8.60;4.25;;;;;;;;;;10940388;27;20017;-74
2024/04/11 04:37:56;;;;;;;9.95;4.50;;;;;;;;;;10954585;26;21236;-75
2024/04/11 04:43:05;;;;;;;11.20;5.00;;;;;;;;;;10943323;27;20023;-74
2024/04/11 04:48:12;;;;;;;12.68;4.60;;;;;;;;;;10940255;26;20046;-74
2024/04/11 04:53:17;;;;;;;8.30;4.03;;;;;;;;;;10943333;27;20117;-74
2024/04/11 04:58:26;;;;;;;12.00;4.22;;;;;;;;;;10935029;26;20306;-74
2024/04/11 05:03:31;;;;;;;6.00;3.25;;;;;;;;;;10937318;26;20021;-75
2024/04/11 05:08:38;;;;;;;10.85;3.17;;;;;;;;;;10928192;26;20005;-74
2024/04/11 05:13:49;;;;;;;8.02;3.22;;;;;;;;;;10943283;26;20017;-74
2024/04/11 05:18:54;;;;;;;10.40;3.83;;;;;;;;;;10946794;26;20204;-74
2024/04/11 05:23:59;;;;;;;11.23;4.47;;;;;;;;;;10942555;26;20005;-75
2024/04/11 05:29:07;;;;;;;8.93;4.38;;;;;;;;;;10938420;26;20009;-75
2024/04/11 05:34:14;;;;;;;11.80;4.43;;;;;;;;;;10952790;26;20006;-75
2024/04/11 05:39:22;;;;;;;9.30;4.53;;;;;;;;;;10954626;26;20006;-74
2024/04/11 05:44:30;;;;;;;15.13;4.40;;;;;;;;;;10955393;26;20017;-74
2024/04/11 05:49:35;;;;;;;16.00;4.80;;;;;;;;;;10952165;26;20358;-77
2024/04/11 05:54:39;;;;;;;16.77;5.28;;;;;;;;;;10954523;26;20024;-75
2024/04/11 05:59:49;;;;;;;15.25;6.88;;;;;;;;;;10955898;26;20124;-76
2024/04/11 06:04:54;;;;;;;12.57;5.60;;;;;;;;;;10954948;26;19998;-75
2024/04/11 06:10:04;;;;;;;15.38;5.93;;;;;;;;;;10935895;26;20426;-75
2024/04/11 06:15:11;;;;;;;12.70;5.95;;;;;;;;;;10951073;26;20006;-74
2024/04/11 06:20:21;;;;;;;13.85;6.10;;;;;;;;;;10975699;26;20024;-74
2024/04/11 06:25:26;;;;;;;15.77;5.82;;;;;;;;;;10961222;26;20030;-75
2024/04/11 06:30:36;;;;;;;14.25;6.55;;;;;;;;;;10955972;26;20006;-74
2024/04/11 06:35:41;;;;;;;14.13;6.00;;;;;;;;;;10954420;26;20013;-76
2024/04/11 06:40:48;;;;;;;13.00;5.50;;;;;;;;;;10950474;26;20009;-75
2024/04/11 06:45:57;;;;;;;18.17;5.18;;;;;;;;;;10956931;26;20010;-74
2024/04/11 06:51:02;;;;;;;8.35;4.63;;;;;;;;;;10952663;26;20262;-74
2024/04/11 06:56:08;;;;;;;7.18;3.80;;;;;;;;;;10949568;26;20020;-76
2024/04/11 07:01:16;;;;;;;9.48;4.07;;;;;;;;;;10954545;26;20010;-76
2024/04/11 07:06:24;;;;;;;12.25;4.47;;;;;;;;;;10950418;26;20001;-75
2024/04/11 07:11:32;;;;;;;6.32;3.58;;;;;;;;;;10956629;26;20018;-75
2024/04/11 07:16:44;;;;;;;7.38;3.92;;;;;;;;;;10947008;26;20024;-75
2024/04/11 07:21:49;;;;;;;7.80;4.00;;;;;;;;;;10952041;26;20810;-74
2024/04/11 07:26:56;;;;;;;6.88;3.78;;;;;;;;;;10946413;26;20009;-74
2024/04/11 07:32:05;;;;;;;5.72;3.80;;;;;;;;;;10948014;26;20016;-75
2024/04/11 07:37:09;;;;;;;5.28;3.50;;;;;;;;;;10940750;26;20005;-74
2024/04/11 07:42:47;;;;;;;5.55;3.47;;;;;;;;;;10945039;26;20088;-74
2024/04/11 07:47:50;;;;;;;6.50;3.60;;;;;;;;;;10956367;27;20017;-75
2024/04/11 07:53:06;;;;;;;7.25;3.30;;;;;;;;;;10951677;26;20567;-74
2024/04/11 07:58:11;;;;;;;6.13;3.20;;;;;;;;;;10949275;26;19997;-75
2024/04/11 08:03:18;;;;;;;6.97;3.17;;;;;;;;;;10923595;26;20082;-72
2024/04/11 08:08:23;;;;;;;4.00;3.22;;;;;;;;;;10937066;26;20002;-74
2024/04/11 08:13:28;;;;;;;5.85;3.63;;;;;;;;;;10950617;26;20680;-75
2024/04/11 08:18:41;;;;;;;7.55;3.55;;;;;;;;;;10954028;26;20013;-75
2024/04/11 08:23:46;;;;;;;5.10;3.60;;;;;;;;;;10941953;26;20009;-75
2024/04/11 08:28:51;;;;;;;4.72;3.90;;;;;;;;;;10944875;26;20756;-75
2024/04/11 08:33:59;;;;;;;9.68;4.60;;;;;;;;;;10942609;26;20001;-75
2024/04/11 08:39:04;;;;;;;11.95;4.43;;;;;;;;;;10948657;26;20029;-74
2024/04/11 08:44:11;;;;;;;5.75;4.55;;;;;;;;;;10938892;26;20081;-75
2024/04/11 08:49:18;;;;;;;5.82;4.10;;;;;;;;;;10944807;26;20017;-77
2024/04/11 08:54:24;;;;;;;8.20;5.10;;;;;;;;;;10919676;26;20006;-75
2024/04/11 08:59:29;;;;;;;6.95;4.18;;;;;;;;;;10945307;26;20446;-75
2024/04/11 09:04:36;;;;;;;6.85;4.80;;;;;;;;;;10945688;26;20856;-75
2024/04/11 09:09:41;;;;;;;5.68;4.45;;;;;;;;;;10942948;26;20020;-76
2024/04/11 09:14:47;;;;;;;8.48;4.30;;;;;;;;;;10946322;26;20119;-76
2024/04/11 09:20:05;;;;;;;4.95;4.20;;;;;;;;;;10948783;26;20014;-76
2024/04/11 09:25:11;;;;;;;7.05;4.55;;;;;;;;;;10915106;27;20020;-76
2024/04/11 09:30:17;;;;;;;7.85;5.20;;;;;;;;;;10946695;26;20141;-75
2024/04/11 09:35:24;;;;;;;7.57;4.30;;;;;;;;;;10956049;26;20394;-76
2024/04/11 09:40:34;;;;;;;5.70;4.57;;;;;;;;;;10954781;26;20006;-76
2024/04/11 09:45:41;;;;;;;6.15;4.25;;;;;;;;;;10950505;26;20017;-76
2024/04/11 09:50:49;;;;;;;6.05;4.10;;;;;;;;;;10955818;26;20017;-76
2024/04/11 09:55:54;;;;;;;8.90;4.32;;;;;;;;;;10945370;26;20010;-77
2024/04/11 10:01:09;;;;;;;7.80;4.13;;;;;;;;;;10921839;26;20002;-76
2024/04/11 10:06:20;;;;;;;5.85;3.70;;;;;;;;;;10947874;26;20024;-76
2024/04/11 10:11:24;;;;;;;;;;;;;;;;;;10954706;26;20517;-76
2024/04/11 10:16:32;;;;;;;6.35;3.60;;;;;;;;;;10952804;26;19954;-76
2024/04/11 10:21:40;;;;;;;7.53;4.07;;;;;;;;;;10953988;26;20001;-76
2024/04/11 10:27:09;;;;;;;6.10;4.10;;;;;;;;;;10948670;26;20006;-76
2024/04/11 10:32:18;;;;;;;7.78;3.72;;;;;;;;;;10952960;27;20023;-76
2024/04/11 10:37:26;;;;;;;6.18;3.60;;;;;;;;;;10900654;26;20025;-76
2024/04/11 10:42:36;;;;;;;6.15;3.63;;;;;;;;;;10921174;26;20192;-76
2024/04/11 10:47:42;;;;;;;4.95;3.97;;;;;;;;;;10960102;26;20009;-76
2024/04/11 10:52:51;;;;;;;7.57;4.18;;;;;;;;;;10952244;26;20006;-76
2024/04/11 10:58:08;;;;;;;6.22;4.13;;;;;;;;;;10922590;27;20422;-76
2024/04/11 11:03:14;;;;;;;5.68;3.60;;;;;;;;;;10947654;26;20010;-75
2024/04/11 11:08:23;;;;;;;6.95;3.40;;;;;;;;;;10949288;26;20797;-74
2024/04/11 11:13:28;;;;;;;7.03;3.70;;;;;;;;;;10944536;26;21005;-76
2024/04/11 11:18:33;;;;;;;8.10;4.25;;;;;;;;;;10924597;27;19997;-75
2024/04/11 11:23:45;;;;;;;8.75;4.75;;;;;;;;;;10951673;27;20002;-74
2024/04/11 11:28:51;;;;;;;6.43;4.20;;;;;;;;;;10945711;26;20006;-75
2024/04/11 11:33:56;;;;;;;7.43;3.90;;;;;;;;;;10929825;26;20002;-74
2024/04/11 11:39:04;;;;;;;6.85;4.15;;;;;;;;;;10953202;26;20002;-75
2024/04/11 11:44:17;;;;;;;5.40;3.90;;;;;;;;;;10949535;26;20017;-77
2024/04/11 11:49:26;;;;;;;8.88;4.20;;;;;;;;;;10952063;26;20084;-76
2024/04/11 11:54:34;;;;;;;6.72;3.85;;;;;;;;;;10943881;26;20470;-76
2024/04/11 11:59:44;;;;;;;7.85;3.40;;;;;;;;;;10917698;26;20315;-75
2024/04/11 12:04:52;;;;;;;7.88;3.78;;;;;;;;;;10921168;26;20012;-76
2024/04/11 12:10:12;;;;;;;5.18;3.40;;;;;;;;;;10936920;26;20010;-77
2024/04/11 12:15:18;;;;;;;6.07;3.83;;;;;;;;;;10945363;27;20075;-75
2024/04/11 12:20:29;;;;;;;7.93;4.00;;;;;;;;;;10919137;27;20009;-76
2024/04/11 12:25:38;;;;;;;8.05;4.18;;;;;;;;;;10942318;26;21619;-75
2024/04/11 12:30:46;;;;;;;6.47;3.38;;;;;;;;;;10935443;26;20005;-76
2024/04/11 12:36:37;;;;;;;6.05;3.67;;;;;;;;;;10907290;27;20065;-77
2024/04/11 12:41:32;;;;;;;6.13;3.90;;;;;;;;;;10940998;26;20423;-75
2024/04/11 12:46:42;;;;;;;5.43;3.77;;;;;;;;;;10949720;26;19998;-76
2024/04/11 12:51:48;;;;;;;5.68;3.72;;;;;;;;;;10937233;26;20624;-76
2024/04/11 12:57:02;;;;;;;3.80;3.40;;;;;;;;;;10946772;26;20779;-76
2024/04/11 13:02:08;;;;;;;6.20;3.50;;;;;;;;;;10938467;26;22272;-75
2024/04/11 13:07:19;;;;;;;6.68;4.30;;;;;;;;;;10920962;26;20482;-75
2024/04/11 13:12:28;;;;;;;6.28;3.60;;;;;;;;;;10941280;26;20014;-75
2024/04/11 13:17:34;;;;;;;6.72;4.28;;;;;;;;;;10939296;26;20018;-76
2024/04/11 13:22:41;;;;;;;5.82;4.10;;;;;;;;;;10946717;26;20017;-77
2024/04/11 13:27:52;;;;;;;6.80;3.92;;;;;;;;;;10935800;26;20416;-76
2024/04/11 13:32:59;;;;;;;8.87;4.00;;;;;;;;;;10940051;26;20015;-74
2024/04/11 13:38:12;;;;;;;8.80;5.15;;;;;;;;;;10938665;26;20005;-76
2024/04/11 13:43:24;;;;;;;5.00;3.42;;;;;;;;;;10939465;26;20009;-76
2024/04/11 13:48:30;;;;;;;7.35;4.10;;;;;;;;;;10945598;27;20005;-77
2024/04/11 13:53:36;;;;;;;7.22;4.55;;;;;;;;;;10941739;26;20126;-76
2024/04/11 13:58:48;;;;;;;7.65;4.75;;;;;;;;;;10918670;26;20002;-74
2024/04/11 14:03:54;;;;;;;7.30;4.18;;;;;;;;;;10952899;26;20010;-74
2024/04/11 14:08:59;;;;;;;8.30;3.83;;;;;;;;;;10949482;26;20013;-77
2024/04/11 14:14:11;;;;;;;6.57;4.35;;;;;;;;;;10949599;26;20201;-75
2024/04/11 14:19:17;;;;;;;10.13;4.38;;;;;;;;;;10950550;26;20525;-76
2024/04/11 14:24:35;;;;;;;6.30;4.07;;;;;;;;;;10936708;27;20091;-75
2024/04/11 14:29:47;;;;;;;8.23;5.00;;;;;;;;;;10952380;26;20005;-76
2024/04/11 14:35:22;;;;;;;7.65;4.35;;;;;;;;;;10946986;26;20024;-75
2024/04/11 14:40:35;;;;;;;6.32;3.80;;;;;;;;;;10950075;26;20017;-77
2024/04/11 14:45:43;;;;;;;7.80;4.18;;;;;;;;;;10946089;26;20008;-75
2024/04/11 14:50:55;;;;;;;8.25;4.45;;;;;;;;;;10955927;26;20061;-75
2024/04/11 14:56:14;;;;;;;6.70;4.18;;;;;;;;;;10944940;27;20100;-75
2024/04/11 15:01:30;;;;;;;6.70;4.20;;;;;;;;;;10954959;27;19998;-75
2024/04/11 15:06:36;;;;;;;8.23;5.00;;;;;;;;;;10945462;26;20016;-74
2024/04/11 15:11:41;;;;;;;8.40;4.00;;;;;;;;;;10948432;26;20013;-74
2024/04/11 15:16:49;;;;;;;8.63;4.35;;;;;;;;;;10947966;26;20017;-73
2024/04/11 15:21:54;;;;;;;7.30;4.57;;;;;;;;;;10951936;26;20344;-74
2024/04/11 15:26:58;;;;;;;7.80;4.00;;;;;;;;;;10950434;27;20045;-75
2024/04/11 15:32:22;;;;;;;9.10;4.93;;;;;;;;;;10953211;26;20033;-75
2024/04/11 15:37:43;;;;;;;8.02;4.30;;;;;;;;;;10939157;26;20016;-74
2024/04/11 15:42:48;;;;;;;8.35;4.18;;;;;;;;;;10944836;27;20592;-75
2024/04/11 15:47:58;;;;;;;7.25;4.13;;;;;;;;;;10950483;27;20053;-74
2024/04/11 15:53:05;;;;;;;8.95;4.50;;;;;;;;;;10946989;27;20087;-76
2024/04/11 15:58:14;;;;;;;8.90;4.68;;;;;;;;;;10909026;27;20128;-76
2024/04/11 16:03:22;;;;;;;6.95;4.60;;;;;;;;;;10946442;26;20042;-76
2024/04/11 16:08:28;;;;;;;9.02;4.93;;;;;;;;;;10907960;26;20486;-75
2024/04/11 16:13:39;;;;;;;8.23;5.28;;;;;;;;;;10940904;26;20039;-75
2024/04/11 16:18:46;;;;;;;7.53;4.50;;;;;;;;;;10944663;26;20454;-75
2024/04/11 16:23:56;;;;;;;7.95;4.72;;;;;;;;;;10942167;26;20184;-75
2024/04/11 16:29:06;;;;;;;11.65;4.85;;;;;;;;;;10911901;26;20521;-75
2024/04/11 16:34:19;;;;;;;10.68;4.72;;;;;;;;;;10947100;26;20615;-75
2024/04/11 16:39:49;;;;;;;8.13;4.63;;;;;;;;;;10937858;26;20009;-75
2024/04/11 16:50:19;;;;;;;7.95;5.15;;;;;;;;;;10942833;26;20557;-74
2024/04/11 16:55:26;;;;;;;11.35;5.10;;;;;;;;;;10943277;26;20041;-74
2024/04/11 17:00:40;;;;;;;9.07;5.22;;;;;;;;;;10949297;26;20759;-75
2024/04/11 17:05:55;;;;;;;9.17;4.77;;;;;;;;;;10940529;26;20481;-73
2024/04/11 17:11:06;;;;;;;8.00;4.57;;;;;;;;;;10917259;27;20229;-75
2024/04/11 17:16:18;;;;;;;10.35;4.93;;;;;;;;;;10933788;26;20025;-75
2024/04/11 17:21:28;;;;;;;6.50;4.20;;;;;;;;;;10934897;26;20014;-75
2024/04/11 17:26:38;;;;;;;8.70;4.68;;;;;;;;;;10936600;26;20006;-75
2024/04/11 17:31:53;;;;;;;10.30;4.22;;;;;;;;;;10928679;26;20589;-76
2024/04/11 17:37:14;;;;;;;10.30;5.28;;;;;;;;;;10951981;26;20014;-75
2024/04/11 17:42:23;;;;;;;9.63;4.57;;;;;;;;;;10939452;26;20079;-75
2024/04/11 17:47:32;;;;;;;8.60;4.55;;;;;;;;;;10941036;26;20010;-76
2024/04/11 17:52:50;;;;;;;8.48;4.78;;;;;;;;;;10956326;26;20106;-76
2024/04/11 17:57:59;;;;;;;9.65;4.28;;;;;;;;;;10957570;26;20457;-75
2024/04/11 18:03:06;;;;;;;7.53;4.18;;;;;;;;;;10952621;26;20456;-76
2024/04/11 18:08:14;;;;;;;11.50;4.60;;;;;;;;;;10959115;26;20071;-75
2024/04/11 18:13:33;;;;;;;10.57;4.63;;;;;;;;;;10941827;26;20013;-75
2024/04/11 18:18:47;;;;;;;12.07;4.75;;;;;;;;;;10946436;26;20006;-75
2024/04/11 18:23:56;;;;;;;8.80;4.65;;;;;;;;;;10953174;26;20168;-76
2024/04/11 18:29:06;;;;;;;10.30;4.97;;;;;;;;;;10964405;26;20002;-77
2024/04/11 18:34:13;;;;;;;12.32;5.80;;;;;;;;;;10958586;26;20006;-76
2024/04/11 18:39:22;;;;;;;10.40;5.05;;;;;;;;;;10948996;26;20005;-78
2024/04/11 18:44:43;;;;;;;12.18;5.53;;;;;;;;;;10947071;26;20024;-78
2024/04/11 18:49:49;;;;;;;10.77;5.85;;;;;;;;;;10947049;26;20013;-76
2024/04/11 18:54:58;;;;;;;12.50;4.80;;;;;;;;;;10922592;26;20002;-76
2024/04/11 19:00:09;;;;;;;11.63;5.57;;;;;;;;;;10916720;26;20017;-75
2024/04/11 19:05:14;;;;;;;15.20;6.47;;;;;;;;;;10951243;26;20037;-75
2024/04/11 19:10:26;;;;;;;12.05;5.55;;;;;;;;;;10951771;26;20006;-75
2024/04/11 19:15:31;;;;;;;9.80;5.45;;;;;;;;;;10948231;26;20013;-76
2024/04/11 19:20:39;;;;;;;13.15;5.70;;;;;;;;;;10941140;27;20017;-76
2024/04/11 19:25:47;;;;;;;13.75;5.97;;;;;;;;;;10938385;27;20014;-76
2024/04/11 19:30:55;;;;;;;11.40;5.90;;;;;;;;;;10945725;26;20091;-77
2024/04/11 19:36:07;;;;;;;14.95;6.22;;;;;;;;;;10943593;27;20075;-77
2024/04/11 19:41:16;;;;;;;11.43;5.88;;;;;;;;;;10921252;27;20013;-77
2024/04/11 19:46:23;;;;;;;14.25;6.20;;;;;;;;;;10911709;26;20017;-76
2024/04/11 19:51:35;;;;;;;23.13;9.20;;;;;;;;;;10952699;26;20309;-77
2024/04/11 19:56:46;;;;;;;14.20;6.72;;;;;;;;;;10917302;26;20006;-76
2024/04/11 20:01:54;;;;;;;12.63;6.47;;;;;;;;;;10892693;27;20020;-77
2024/04/11 20:07:05;;;;;;;12.20;5.75;;;;;;;;;;10949581;26;20046;-76
2024/04/11 20:12:26;;;;;;;15.00;6.55;;;;;;;;;;10918632;27;20005;-77
2024/04/11 20:17:37;;;;;;;15.50;6.68;;;;;;;;;;10944608;26;20021;-75
2024/04/11 20:22:48;;;;;;;24.35;9.65;;;;;;;;;;10947846;26;20037;-76
2024/04/11 20:28:07;;;;;;;15.57;6.53;;;;;;;;;;10945920;26;20021;-75
2024/04/11 20:33:12;;;;;;;12.70;6.50;;;;;;;;;;10944287;26;20006;-76
2024/04/11 20:38:25;;;;;;;13.73;6.53;;;;;;;;;;10947948;26;20010;-76
2024/04/11 20:43:56;;;;;;;13.65;6.57;;;;;;;;;;10957283;26;20792;-75
2024/04/11 20:49:24;;;;;;;12.88;6.25;;;;;;;;;;10940067;26;20021;-76
2024/04/11 21:37:36;;;;;;;13.57;6.38;;;;;;;;;;10961127;26;20043;-75
2024/04/11 21:42:42;;;;;;;15.45;5.63;;;;;;;;;;10953921;27;20489;-76
2024/04/11 21:47:57;;;;;;;13.30;6.07;;;;;;;;;;10926395;27;20016;-75
2024/04/11 21:53:02;;;;;;;11.57;6.28;;;;;;;;;;10954571;26;20002;-75
2024/04/11 21:58:18;;;;;;;14.05;6.55;;;;;;;;;;10954354;26;20006;-77
2024/04/11 22:03:28;;;;;;;16.77;6.43;;;;;;;;;;10948947;27;20020;-77
2024/04/11 22:09:11;;;;;;;12.65;6.07;;;;;;;;;;10955316;26;20037;-76
2024/04/11 22:14:21;;;;;;;13.43;6.07;;;;;;;;;;10950610;26;20492;-76
2024/04/11 22:19:31;;;;;;;13.82;6.30;;;;;;;;;;10953236;27;20231;-77
2024/04/11 22:24:36;;;;;;;12.80;6.05;;;;;;;;;;10944403;27;20042;-77
2024/04/11 22:29:43;;;;;;;14.27;6.68;;;;;;;;;;10947716;27;20002;-75
2024/04/11 22:34:52;;;;;;;12.30;5.47;;;;;;;;;;10954990;27;20021;-75
2024/04/11 22:40:00;;;;;;;12.43;5.80;;;;;;;;;;10950564;26;20031;-77
2024/04/11 22:45:14;;;;;;;11.52;5.93;;;;;;;;;;10945845;27;20017;-77
2024/04/11 22:50:24;;;;;;;14.98;6.07;;;;;;;;;;10955459;27;20030;-77
2024/04/11 22:55:29;;;;;;;13.38;6.00;;;;;;;;;;10944974;27;20037;-76
2024/04/11 23:00:47;;;;;;;12.75;6.05;;;;;;;;;;10911527;26;20399;-76
2024/04/11 23:05:55;;;;;;;12.20;5.82;;;;;;;;;;10947588;27;20010;-73
2024/04/11 23:11:00;;;;;;;12.00;6.00;;;;;;;;;;10953245;26;20010;-74
2024/04/11 23:16:05;;;;;;;10.93;5.20;;;;;;;;;;10945914;26;20037;-74
2024/04/11 23:21:15;;;;;;;12.57;6.05;;;;;;;;;;10942019;27;20021;-73
2024/04/11 23:26:21;;;;;;;12.43;5.30;;;;;;;;;;10947107;27;20020;-74
2024/04/11 23:31:26;;;;;;;12.13;5.68;;;;;;;;;;10947017;26;20005;-74
2024/04/11 23:36:40;;;;;;;14.90;6.00;;;;;;;;;;10944231;26;20525;-74
2024/04/11 23:41:49;;;;;;;14.38;5.50;;;;;;;;;;10947274;27;20009;-74
2024/04/11 23:46:55;;;;;;;12.82;5.90;;;;;;;;;;10942643;26;20133;-74
2024/04/11 23:52:05;;;;;;;16.52;5.57;;;;;;;;;;10943044;27;20110;-74
2024/04/11 23:57:10;;;;;;;11.15;5.35;;;;;;;;;;10949610;26;20021;-76
